Time;durP1;ratioP1;P1;durP2;ratioP2;P2;SDS_P1;SDS_P2;PMS_P1;PMS_P2;Temp;Humidity;BMP_temperature;BMP_pressure;BME280_temperature;BME280_humidity;BME280_pressure;Samples;Min_cycle;Max_cycle;Signal;HPM_P1;HPM_P2
2022/08/27 00:01:15;;;;;;;30.83;19.83;;;;;;;20.20;100.00;101186.66;4913336;29;20200;-46
2022/08/27 00:03:44;;;;;;;24.88;18.63;;;;;;;20.15;100.00;101195.16;4913156;29;20188;-47
2022/08/27 00:06:14;;;;;;;21.17;15.35;;;;;;;20.28;100.00;101184.25;4912322;29;20682;-47
2022/08/27 00:08:41;;;;;;;25.00;18.92;;;;;;;20.17;100.00;101183.19;4913558;29;20209;-46
2022/08/27 00:11:08;;;;;;;29.42;19.92;;;;;;;20.09;100.00;101187.44;4913342;29;20585;-47
2022/08/27 00:13:35;;;;;;;19.58;15.93;;;;;;;20.17;100.00;101185.03;4913325;29;20219;-48
2022/08/27 00:16:02;;;;;;;25.85;18.73;;;;;;;20.15;100.00;101189.72;4909161;29;20270;-48
2022/08/27 00:18:27;;;;;;;32.50;19.95;;;;;;;20.02;100.00;101194.31;4913193;29;20283;-47
2022/08/27 00:20:53;;;;;;;25.67;19.42;;;;;;;20.06;100.00;101190.41;4909821;29;20278;-49
2022/08/27 00:23:18;;;;;;;25.33;17.88;;;;;;;20.03;100.00;101180.63;4913221;29;20187;-47
2022/08/27 00:25:44;;;;;;;32.20;20.95;;;;;;;19.99;100.00;101186.41;4912810;29;20215;-47
2022/08/27 00:28:10;;;;;;;28.73;19.90;;;;;;;19.96;100.00;101176.59;4913360;29;20192;-47
2022/08/27 00:30:35;;;;;;;25.80;19.23;;;;;;;19.95;100.00;101178.44;4913720;28;20283;-47
2022/08/27 00:33:03;;;;;;;29.92;20.35;;;;;;;19.88;100.00;101187.16;4913184;28;20235;-47
2022/08/27 00:35:28;;;;;;;29.42;19.67;;;;;;;19.84;100.00;101186.50;4904980;28;20216;-47
2022/08/27 00:37:54;;;;;;;31.42;20.60;;;;;;;19.91;100.00;101189.66;4912847;29;20191;-48
2022/08/27 00:40:21;;;;;;;33.45;21.73;;;;;;;19.90;100.00;101180.63;4912739;29;20604;-48
2022/08/27 00:42:47;;;;;;;24.45;18.17;;;;;;;19.99;100.00;101184.53;4910298;29;20192;-48
2022/08/27 00:45:15;;;;;;;26.88;18.65;;;;;;;19.95;100.00;101185.75;4912864;29;20311;-46
2022/08/27 00:47:53;;;;;;;27.10;19.30;;;;;;;19.91;100.00;101185.06;4913097;29;20648;-48
2022/08/27 00:50:29;;;;;;;30.50;18.13;;;;;;;19.96;100.00;101188.34;4912457;29;20188;-47
2022/08/27 00:52:58;;;;;;;25.75;18.77;;;;;;;19.92;100.00;101195.00;4911028;29;20192;-47
2022/08/27 00:55:28;;;;;;;22.85;17.63;;;;;;;19.93;100.00;101201.28;4912289;28;20810;-48
2022/08/27 00:58:15;;;;;;;32.03;19.88;;;;;;;19.87;100.00;101202.59;4902952;29;20271;-47
2022/08/27 01:00:41;;;;;;;26.23;18.58;;;;;;;19.91;100.00;101208.69;4912454;29;20279;-47
2022/08/27 01:03:06;;;;;;;28.70;20.05;;;;;;;19.84;100.00;101202.81;4912874;29;20303;-46
2022/08/27 01:05:34;;;;;;;28.80;19.83;;;;;;;19.83;100.00;101202.91;4938798;28;20247;-46
2022/08/27 01:08:06;;;;;;;36.35;20.92;;;;;;;19.79;100.00;101205.00;4912381;29;20283;-47
2022/08/27 01:10:32;;;;;;;35.08;22.65;;;;;;;19.72;100.00;101203.69;4912224;29;20200;-47
2022/08/27 01:12:59;;;;;;;42.38;23.00;;;;;;;19.65;100.00;101205.94;4912486;29;20274;-47
2022/08/27 01:15:27;;;;;;;38.47;23.60;;;;;;;19.62;100.00;101210.72;4909384;29;20220;-47
2022/08/27 01:17:53;;;;;;;41.95;23.80;;;;;;;19.62;100.00;101203.44;4909811;29;20188;-46
2022/08/27 01:20:34;;;;;;;40.75;23.73;;;;;;;19.63;100.00;101213.31;4910999;29;20191;-47
2022/08/27 01:23:20;;;;;;;39.78;23.58;;;;;;;19.57;100.00;101200.19;4910840;29;20199;-48
2022/08/27 01:25:46;;;;;;;41.60;24.58;;;;;;;19.51;100.00;101193.31;4911284;29;20212;-48
2022/08/27 01:28:12;;;;;;;46.83;24.88;;;;;;;19.53;100.00;101198.66;4911981;29;20245;-47
2022/08/27 01:30:39;;;;;;;41.80;23.60;;;;;;;19.44;100.00;101189.31;4907869;29;20738;-48
2022/08/27 01:33:13;;;;;;;48.20;26.55;;;;;;;19.37;100.00;101193.41;4912005;29;20196;-48
2022/08/27 01:35:43;;;;;;;52.70;25.85;;;;;;;19.37;100.00;101197.97;4908531;29;20582;-47
2022/08/27 01:38:09;;;;;;;35.13;22.85;;;;;;;19.46;100.00;101200.94;4911727;29;20559;-47
2022/08/27 01:40:36;;;;;;;45.95;23.60;;;;;;;19.52;100.00;101199.63;4910892;29;20191;-47
2022/08/27 01:43:03;;;;;;;53.92;26.33;;;;;;;19.45;100.00;101201.91;4909960;29;20207;-49
2022/08/27 01:45:33;;;;;;;54.95;27.02;;;;;;;19.38;100.00;101200.59;4910132;29;20219;-48
2022/08/27 01:47:59;;;;;;;56.03;25.85;;;;;;;19.37;100.00;101204.25;4911415;29;20190;-48
2022/08/27 01:50:30;;;;;;;39.42;23.23;;;;;;;19.46;100.00;101197.31;4911026;29;20195;-48
2022/08/27 01:53:00;;;;;;;38.15;24.92;;;;;;;19.43;100.00;101200.28;4910354;29;20250;-47
2022/08/27 01:55:26;;;;;;;44.05;24.65;;;;;;;19.39;100.00;101201.44;4902700;28;20212;-47
2022/08/27 01:57:53;;;;;;;44.88;26.85;;;;;;;19.23;100.00;101207.09;4911214;29;20211;-48
2022/08/27 02:00:23;;;;;;;43.42;26.67;;;;;;;19.20;100.00;101210.88;4910402;29;20187;-47
2022/08/27 02:02:49;;;;;;;47.92;27.40;;;;;;;19.07;100.00;101213.56;4911335;29;20206;-49
2022/08/27 02:05:15;;;;;;;49.05;27.65;;;;;;;19.07;100.00;101212.69;4910657;29;20200;-47
2022/08/27 02:07:41;;;;;;;52.70;29.17;;;;;;;19.02;100.00;101213.00;4911349;29;20196;-47
2022/08/27 02:10:09;;;;;;;59.40;28.83;;;;;;;18.96;100.00;101210.72;4910357;29;20627;-47
2022/08/27 02:12:35;;;;;;;56.55;29.92;;;;;;;19.00;100.00;101206.81;4909339;29;20200;-47
2022/08/27 02:15:00;;;;;;;52.17;28.73;;;;;;;19.05;100.00;101204.66;4910859;29;20222;-48
2022/08/27 02:17:26;;;;;;;51.22;29.73;;;;;;;19.03;100.00;101209.31;4911115;29;20199;-48
2022/08/27 02:19:52;;;;;;;44.22;25.65;;;;;;;19.10;100.00;101202.47;4910750;29;20192;-49
2022/08/27 02:22:18;;;;;;;47.28;29.92;;;;;;;18.91;100.00;101211.03;4910933;29;20246;-48
2022/08/27 02:24:43;;;;;;;50.13;28.10;;;;;;;18.89;100.00;101210.25;4910251;29;20192;-47
2022/08/27 02:27:09;;;;;;;52.42;30.88;;;;;;;18.89;100.00;101215.69;4909763;29;20192;-47
2022/08/27 02:29:35;;;;;;;59.58;30.88;;;;;;;18.71;100.00;101206.88;4908569;29;20672;-47
2022/08/27 02:32:00;;;;;;;55.42;30.10;;;;;;;18.81;100.00;101212.59;4909365;28;20690;-47
2022/08/27 02:34:27;;;;;;;61.08;30.95;;;;;;;18.76;100.00;101205.69;4908675;29;20289;-47
2022/08/27 02:36:53;;;;;;;51.10;29.63;;;;;;;18.86;100.00;101209.56;4907554;29;20191;-47
2022/08/27 02:39:19;;;;;;;56.13;30.42;;;;;;;18.83;100.00;101212.50;4910079;29;20196;-47
2022/08/27 02:41:45;;;;;;;49.13;29.42;;;;;;;18.85;100.00;101202.41;4910744;29;20184;-48
2022/08/27 02:44:10;;;;;;;56.67;31.48;;;;;;;18.80;100.00;101205.41;4908476;29;20207;-42
2022/08/27 02:46:37;;;;;;;50.15;29.90;;;;;;;18.79;100.00;101216.41;4906344;29;20199;-46
2022/08/27 02:49:03;;;;;;;44.67;28.08;;;;;;;18.80;100.00;101213.56;4913822;29;20192;-46
2022/08/27 02:51:29;;;;;;;47.28;30.00;;;;;;;18.72;100.00;101210.47;4913115;29;20694;-47
2022/08/27 02:53:54;;;;;;;49.30;28.05;;;;;;;18.79;100.00;101211.84;4913443;29;20212;-45
2022/08/27 02:56:19;;;;;;;46.47;27.88;;;;;;;18.77;100.00;101199.31;4914147;29;20203;-45
2022/08/27 02:58:45;;;;;;;42.33;25.42;;;;;;;18.82;100.00;101198.03;4913759;29;20188;-46
2022/08/27 03:01:10;;;;;;;40.08;25.75;;;;;;;18.80;100.00;101202.69;4911933;29;20192;-46
2022/08/27 03:03:37;;;;;;;41.58;25.15;;;;;;;18.86;100.00;101206.84;4913100;29;20509;-47
2022/08/27 03:06:02;;;;;;;44.13;26.50;;;;;;;18.76;100.00;101200.25;4929708;28;20599;-46
2022/08/27 03:08:28;;;;;;;41.17;24.67;;;;;;;18.87;100.00;101195.00;4918333;28;20188;-46
2022/08/27 03:10:55;;;;;;;39.92;23.23;;;;;;;18.90;100.00;101198.41;4913455;29;20663;-46
2022/08/27 03:13:22;;;;;;;33.75;21.27;;;;;;;18.86;100.00;101198.72;4913838;28;20258;-46
2022/08/27 03:15:48;;;;;;;42.00;25.15;;;;;;;18.76;100.00;101206.59;4910137;29;20204;-46
2022/08/27 03:18:20;;;;;;;38.78;24.38;;;;;;;18.66;100.00;101202.72;4913347;29;20192;-46
2022/08/27 03:20:52;;;;;;;41.15;23.98;;;;;;;18.73;100.00;101199.50;4913200;29;20192;-45
2022/08/27 03:23:21;;;;;;;40.47;24.17;;;;;;;18.62;100.00;101204.75;4913369;29;20184;-45
2022/08/27 03:25:52;;;;;;;41.03;22.75;;;;;;;18.71;100.00;101198.72;4912273;29;20227;-46
2022/08/27 03:28:20;;;;;;;40.53;23.02;;;;;;;18.72;100.00;101202.34;4913417;29;20231;-45
2022/08/27 03:30:59;;;;;;;36.85;22.40;;;;;;;18.68;100.00;101207.09;4918367;28;20188;-48
2022/08/27 03:33:25;;;;;;;42.13;23.35;;;;;;;18.46;100.00;101209.47;4912152;29;20667;-47
2022/08/27 03:35:51;;;;;;;36.47;23.42;;;;;;;18.46;100.00;101207.63;4913565;28;20303;-47
2022/08/27 03:38:17;;;;;;;37.35;23.77;;;;;;;18.36;100.00;101202.91;4913583;29;20188;-47
2022/08/27 03:40:43;;;;;;;36.05;23.15;;;;;;;18.46;100.00;101213.06;4913068;29;20184;-45
2022/08/27 03:43:13;;;;;;;35.15;21.65;;;;;;;18.54;100.00;101217.97;4913699;29;20216;-47
2022/08/27 03:45:42;;;;;;;31.20;21.02;;;;;;;18.44;100.00;101217.69;4913162;29;20212;-47
2022/08/27 03:48:08;;;;;;;30.02;19.58;;;;;;;18.41;100.00;101215.19;4912120;29;20188;-46
2022/08/27 03:50:37;;;;;;;33.58;20.23;;;;;;;18.38;100.00;101218.09;4912998;29;20176;-48
2022/08/27 03:53:03;;;;;;;26.92;17.58;;;;;;;18.53;100.00;101218.94;4913234;29;20258;-46
2022/08/27 03:55:28;;;;;;;35.08;19.73;;;;;;;18.46;100.00;101218.47;4911768;28;20629;-45
2022/08/27 03:57:54;;;;;;;28.67;16.95;;;;;;;18.50;100.00;101219.16;4912615;29;20191;-46
2022/08/27 04:00:19;;;;;;;31.17;17.33;;;;;;;18.54;100.00;101217.97;4900986;29;20707;-47
2022/08/27 04:02:45;;;;;;;29.83;18.40;;;;;;;18.45;100.00;101218.56;4913147;29;20195;-47
2022/08/27 04:05:12;;;;;;;29.48;17.05;;;;;;;18.34;100.00;101224.69;4911753;29;20589;-48
2022/08/27 04:07:39;;;;;;;32.10;16.85;;;;;;;18.38;100.00;101220.81;4912335;29;20196;-46
2022/08/27 04:10:08;;;;;;;23.45;16.75;;;;;;;18.35;100.00;101221.03;4909290;29;20258;-47
2022/08/27 04:12:34;;;;;;;27.52;16.10;;;;;;;18.32;100.00;101218.50;4913002;29;20202;-46
2022/08/27 04:15:00;;;;;;;29.63;16.20;;;;;;;18.23;100.00;101211.81;4912727;28;20221;-47
2022/08/27 04:17:26;;;;;;;26.95;16.38;;;;;;;18.34;100.00;101213.84;4911509;29;20192;-46
2022/08/27 04:19:52;;;;;;;25.60;16.20;;;;;;;18.19;100.00;101217.53;4912298;29;20400;-48
2022/08/27 04:22:18;;;;;;;25.75;15.60;;;;;;;18.18;100.00;101215.81;4912742;29;20240;-46
2022/08/27 04:24:43;;;;;;;27.85;16.20;;;;;;;18.12;100.00;101220.63;4912364;28;20204;-46
2022/08/27 04:27:10;;;;;;;25.23;14.63;;;;;;;18.14;100.00;101219.69;4912937;29;20196;-47
2022/08/27 04:29:36;;;;;;;20.85;13.90;;;;;;;18.17;100.00;101227.59;4912770;28;20663;-46
2022/08/27 04:32:02;;;;;;;23.60;15.05;;;;;;;18.10;100.00;101217.19;4912755;29;20184;-45
2022/08/27 04:34:28;;;;;;;21.27;12.32;;;;;;;18.23;100.00;101211.81;4912267;28;20212;-46
2022/08/27 04:36:55;;;;;;;22.40;14.00;;;;;;;18.09;100.00;101212.72;4912647;29;20299;-46
2022/08/27 04:39:21;;;;;;;27.77;13.52;;;;;;;18.09;100.00;101218.13;4907814;29;20241;-46
2022/08/27 04:41:51;;;;;;;20.88;12.50;;;;;;;18.09;100.00;101215.41;4911034;29;20192;-45
2022/08/27 04:44:17;;;;;;;22.92;13.60;;;;;;;17.99;100.00;101216.09;4911926;29;20236;-44
2022/08/27 04:46:42;;;;;;;22.15;12.25;;;;;;;17.99;100.00;101224.22;4912048;29;20994;-47
2022/08/27 04:49:10;;;;;;;22.63;11.15;;;;;;;18.07;100.00;101225.50;4911804;29;20242;-48
2022/08/27 04:51:37;;;;;;;19.75;11.60;;;;;;;18.07;100.00;101228.19;4912172;29;20645;-44
2022/08/27 04:54:03;;;;;;;21.65;11.50;;;;;;;18.10;100.00;101229.84;4911574;29;20227;-44
2022/08/27 04:56:30;;;;;;;18.20;11.18;;;;;;;18.08;100.00;101229.06;4912115;29;20274;-43
2022/08/27 04:58:55;;;;;;;17.17;9.77;;;;;;;18.13;100.00;101237.81;4911053;29;20261;-49
2022/08/27 05:01:27;;;;;;;18.05;10.05;;;;;;;18.08;100.00;101229.06;4927552;28;20202;-43
2022/08/27 05:03:53;;;;;;;15.73;9.98;;;;;;;18.10;100.00;101232.56;4904551;28;20203;-49
2022/08/27 05:06:20;;;;;;;19.38;10.10;;;;;;;18.02;100.00;101248.47;4912146;29;20188;-45
2022/08/27 05:08:47;;;;;;;17.63;10.40;;;;;;;18.03;100.00;101237.50;4911914;29;20278;-49
2022/08/27 05:11:14;;;;;;;16.92;9.48;;;;;;;18.03;100.00;101239.34;4910591;29;20575;-45
2022/08/27 05:13:41;;;;;;;17.67;9.50;;;;;;;18.01;100.00;101247.56;4909101;29;20283;-49
2022/08/27 05:16:09;;;;;;;14.75;9.70;;;;;;;17.86;100.00;101238.56;4911789;28;20698;-46
2022/08/27 05:18:37;;;;;;;18.88;13.07;;;;;;;17.86;100.00;101259.38;4911929;29;20212;-44
2022/08/27 05:21:04;;;;;;;15.52;9.63;;;;;;;17.76;100.00;101245.50;4911545;29;20197;-49
2022/08/27 05:23:31;;;;;;;11.02;7.47;;;;;;;17.92;100.00;101238.16;4904623;29;20200;-45
2022/08/27 05:25:57;;;;;;;23.50;9.57;;;;;;;17.89;100.00;101249.22;4911494;29;20212;-50
2022/08/27 05:28:25;;;;;;;15.13;7.57;;;;;;;17.88;100.00;101254.72;4910142;29;20188;-46
2022/08/27 05:30:52;;;;;;;16.00;8.73;;;;;;;17.83;100.00;101244.16;4906405;29;20188;-44
2022/08/27 05:33:24;;;;;;;14.85;7.25;;;;;;;17.94;100.00;101248.94;4911534;29;20200;-45
2022/08/27 05:35:55;;;;;;;14.32;7.93;;;;;;;17.87;100.00;101247.56;4910378;28;20212;-47
2022/08/27 05:38:23;;;;;;;15.25;7.68;;;;;;;17.83;100.00;101255.00;4911261;29;20205;-49
2022/08/27 05:40:50;;;;;;;14.43;8.52;;;;;;;17.73;100.00;101255.63;4911342;29;20271;-49
2022/08/27 05:43:17;;;;;;;14.60;8.23;;;;;;;17.78;100.00;101250.81;4910134;29;20220;-49
2022/08/27 05:45:45;;;;;;;13.75;7.63;;;;;;;17.73;100.00;101253.78;4926392;29;20212;-44
2022/08/27 05:48:12;;;;;;;16.20;7.25;;;;;;;17.87;100.00;101250.28;4911804;29;20275;-50
2022/08/27 05:50:39;;;;;;;14.60;7.13;;;;;;;17.85;100.00;101254.94;4911268;28;20263;-47
2022/08/27 05:53:05;;;;;;;12.45;6.88;;;;;;;17.84;100.00;101258.59;4911412;29;20583;-45
2022/08/27 05:55:43;;;;;;;12.40;6.32;;;;;;;17.98;100.00;101258.63;4910259;29;20271;-46
2022/08/27 06:01:03;;;;;;;15.52;7.78;;;;;;;17.86;100.00;101262.06;4910288;29;20192;-47
2022/08/27 06:01:05;;;;;;;11.88;6.47;;;;;;;17.79;100.00;101256.13;4909156;29;20326;-48
2022/08/27 06:03:32;;;;;;;17.30;6.90;;;;;;;17.76;100.00;101258.19;4907828;29;20237;-43
2022/08/27 06:06:05;;;;;;;14.40;6.97;;;;;;;17.68;100.00;101259.50;4911627;29;20626;-45
2022/08/27 06:08:31;;;;;;;13.35;7.05;;;;;;;17.66;100.00;101261.44;4911432;29;20215;-47
2022/08/27 06:11:00;;;;;;;11.55;6.07;;;;;;;17.80;100.00;101262.41;4911036;29;20655;-48
2022/08/27 06:13:27;;;;;;;12.90;6.70;;;;;;;17.72;100.00;101265.63;4911300;29;20191;-44
2022/08/27 06:16:08;;;;;;;14.50;7.30;;;;;;;17.56;100.00;101270.22;4910900;29;20208;-48
2022/08/27 06:18:37;;;;;;;13.05;7.07;;;;;;;17.65;100.00;101257.00;4909760;29;20188;-45
2022/08/27 06:21:03;;;;;;;10.00;6.57;;;;;;;17.65;100.00;101259.69;4910913;29;20207;-49
2022/08/27 06:23:30;;;;;;;11.93;6.20;;;;;;;17.68;100.00;101266.75;4911420;28;20692;-47
2022/08/27 06:25:56;;;;;;;16.15;6.13;;;;;;;17.68;100.00;101256.78;4911320;29;20211;-46
2022/08/27 06:28:25;;;;;;;8.23;6.05;;;;;;;17.70;100.00;101265.69;4910059;29;20200;-43
2022/08/27 06:30:50;;;;;;;14.85;7.43;;;;;;;17.58;100.00;101263.75;4905788;29;20204;-44
2022/08/27 06:33:16;;;;;;;15.90;8.00;;;;;;;17.64;100.00;101257.06;4910683;29;20188;-45
2022/08/27 06:35:41;;;;;;;19.85;7.80;;;;;;;17.69;100.00;101254.97;4909495;29;20208;-47
2022/08/27 06:38:07;;;;;;;14.05;7.07;;;;;;;17.62;100.00;101262.59;4910865;29;20679;-49
2022/08/27 06:40:33;;;;;;;17.05;7.85;;;;;;;17.68;100.00;101256.78;4910433;29;20187;-44
2022/08/27 06:42:59;;;;;;;16.52;7.40;;;;;;;17.70;100.00;101259.41;4906656;29;20196;-44
2022/08/27 06:45:25;;;;;;;11.93;6.78;;;;;;;17.49;100.00;101257.06;4910610;29;20204;-45
2022/08/27 06:47:51;;;;;;;13.38;6.25;;;;;;;17.60;100.00;101252.81;4911046;29;20242;-44
2022/08/27 06:50:19;;;;;;;11.85;5.40;;;;;;;17.51;100.00;101262.34;4909725;29;20267;-46
2022/08/27 06:52:45;;;;;;;9.52;5.80;;;;;;;17.58;100.00;101263.75;4927439;28;20210;-46
2022/08/27 06:55:10;;;;;;;8.20;5.10;;;;;;;17.50;100.00;101268.75;4915812;28;20219;-45
2022/08/27 06:57:36;;;;;;;12.27;5.68;;;;;;;17.36;100.00;101277.72;4910525;29;20282;-50
2022/08/27 07:00:04;;;;;;;8.63;5.70;;;;;;;17.49;100.00;101273.31;4910113;29;20184;-44
2022/08/27 07:02:30;;;;;;;6.28;4.35;;;;;;;17.66;100.00;101261.44;4910316;29;20651;-45
2022/08/27 07:04:55;;;;;;;10.23;4.60;;;;;;;17.58;100.00;101263.75;4910459;29;20610;-44
2022/08/27 07:07:21;;;;;;;14.70;5.50;;;;;;;17.71;100.00;101269.31;4910629;29;20195;-44
2022/08/27 07:09:46;;;;;;;13.07;5.15;;;;;;;17.67;100.00;101262.31;4910297;29;20206;-47
2022/08/27 07:12:12;;;;;;;11.18;5.05;;;;;;;17.73;100.00;101269.19;4910191;29;20212;-47
2022/08/27 07:14:37;;;;;;;10.73;5.53;;;;;;;17.66;100.00;101266.84;4898333;29;20333;-46
2022/08/27 07:17:03;;;;;;;13.15;5.32;;;;;;;17.52;100.00;101279.50;4909898;29;20192;-47
2022/08/27 07:19:31;;;;;;;14.07;4.68;;;;;;;17.71;100.00;101280.16;4910262;29;20271;-49
2022/08/27 07:21:56;;;;;;;11.63;4.72;;;;;;;17.56;100.00;101295.50;4910406;29;20192;-43
2022/08/27 07:24:23;;;;;;;14.20;4.93;;;;;;;17.57;100.00;101293.66;4906525;29;20214;-45
2022/08/27 07:26:48;;;;;;;13.65;4.55;;;;;;;17.54;100.00;101293.84;4910163;29;20190;-45
2022/08/27 07:29:14;;;;;;;12.88;4.80;;;;;;;17.65;100.00;101286.78;4909889;29;20195;-44
2022/08/27 07:31:40;;;;;;;12.10;4.63;;;;;;;17.60;100.00;101298.88;4907606;29;20246;-47
2022/08/27 07:34:06;;;;;;;13.32;4.93;;;;;;;17.53;100.00;101303.78;4927042;29;20303;-47
2022/08/27 07:36:35;;;;;;;11.05;4.32;;;;;;;17.48;100.00;101290.50;4912725;28;20626;-49
2022/08/27 07:39:00;;;;;;;10.02;3.97;;;;;;;17.53;100.00;101300.22;4911878;29;20279;-43
2022/08/27 07:41:26;;;;;;;12.48;4.90;;;;;;;17.44;100.00;101301.63;4913280;29;20750;-45
2022/08/27 07:46:36;;;;;;;11.63;4.43;;;;;;;17.50;100.00;101309.41;4911978;29;20220;-49
2022/08/27 07:49:01;;;;;;;13.30;4.50;;;;;;;17.63;100.00;101314.97;4901614;29;20231;-44
2022/08/27 07:51:30;;;;;;;8.70;4.00;;;;;;;17.76;100.00;101304.25;4913768;29;20184;-46
2022/08/27 07:53:56;;;;;;;10.30;3.60;;;;;;;17.90;100.00;101307.88;4907517;28;20687;-43
2022/08/27 07:56:22;;;;;;;11.20;3.70;;;;;;;17.96;100.00;101294.94;4910527;29;20246;-46
2022/08/27 07:58:48;;;;;;;9.38;3.90;;;;;;;18.13;99.50;101313.72;4913250;29;20662;-45
2022/08/27 08:01:14;;;;;;;10.05;4.57;;;;;;;18.11;98.09;101300.25;4912972;29;20196;-45
2022/08/27 08:03:40;;;;;;;7.60;3.60;;;;;;;18.17;98.43;101308.97;4913112;29;20191;-45
2022/08/27 08:06:10;;;;;;;10.75;3.70;;;;;;;18.09;98.44;101310.34;4913266;28;20599;-48
2022/08/27 08:08:39;;;;;;;9.50;3.42;;;;;;;18.15;98.27;101316.34;4924281;29;20220;-46
2022/08/27 08:11:06;;;;;;;7.10;3.70;;;;;;;18.18;97.90;101313.44;4912845;29;20196;-49
2022/08/27 08:13:32;;;;;;;11.15;4.13;;;;;;;18.33;97.49;101321.47;4912932;29;20192;-43
2022/08/27 08:15:58;;;;;;;12.90;3.72;;;;;;;18.19;97.38;101329.63;4916120;28;20218;-46
2022/08/27 08:18:24;;;;;;;11.60;3.50;;;;;;;18.11;97.81;101335.50;4909808;29;20184;-46
2022/08/27 08:20:50;;;;;;;11.63;4.05;;;;;;;18.14;98.40;101339.00;4910093;29;20710;-48
2022/08/27 08:23:15;;;;;;;11.13;3.55;;;;;;;18.32;97.75;101343.28;4907644;29;20224;-45
2022/08/27 08:25:41;;;;;;;10.75;3.70;;;;;;;18.15;96.76;101338.91;4906230;28;20204;-45
2022/08/27 08:28:07;;;;;;;10.88;3.92;;;;;;;18.07;97.04;101343.94;4913119;29;20714;-45
2022/08/27 08:30:33;;;;;;;13.80;4.35;;;;;;;18.46;97.39;101335.16;4913264;28;20188;-44
2022/08/27 08:32:59;;;;;;;11.68;4.07;;;;;;;18.47;96.40;101338.72;4911609;29;20278;-44
2022/08/27 08:35:24;;;;;;;10.30;5.18;;;;;;;18.06;96.28;101339.47;4912376;29;20584;-45
2022/08/27 08:37:50;;;;;;;13.88;4.88;;;;;;;18.38;97.04;101345.59;4912513;29;20191;-49
2022/08/27 08:40:26;;;;;;;11.98;4.60;;;;;;;18.45;95.45;101338.81;4912252;29;20283;-44
2022/08/27 08:42:53;;;;;;;7.90;4.18;;;;;;;18.66;94.23;101352.00;4912407;29;20202;-46
2022/08/27 08:45:25;;;;;;;13.05;3.90;;;;;;;18.50;93.37;101349.41;4922395;28;20207;-43
2022/08/27 08:48:03;;;;;;;8.43;3.92;;;;;;;18.48;93.42;101354.06;4896719;29;20202;-49
2022/08/27 08:50:38;;;;;;;10.55;4.05;;;;;;;18.25;93.20;101344.63;4910645;29;20187;-50
2022/08/27 08:53:38;;;;;;;10.30;4.00;;;;;;;18.39;94.56;101352.78;4907873;29;20755;-45
2022/08/27 08:56:08;;;;;;;9.60;3.88;;;;;;;18.35;94.73;101358.50;4906367;28;20200;-45
2022/08/27 08:59:14;;;;;;;9.80;3.95;;;;;;;18.21;94.76;101352.06;4912135;29;20206;-43
2022/08/27 09:01:41;;;;;;;9.07;4.05;;;;;;;18.15;95.03;101351.59;4911838;29;20250;-45
2022/08/27 09:04:10;;;;;;;12.75;4.40;;;;;;;18.17;94.71;101353.25;4912114;29;20901;-45
2022/08/27 09:06:51;;;;;;;8.68;3.90;;;;;;;18.36;95.03;101360.25;4911842;29;20270;-44
2022/08/27 09:09:22;;;;;;;13.10;4.00;;;;;;;18.36;94.12;101354.81;4911263;29;20206;-50
2022/08/27 09:11:58;;;;;;;8.75;3.70;;;;;;;18.38;94.35;101364.59;4909593;29;20206;-47
2022/08/27 09:14:41;;;;;;;8.70;3.97;;;;;;;18.39;94.34;101368.19;4910429;29;20286;-47
2022/08/27 09:17:07;;;;;;;11.55;4.13;;;;;;;18.51;93.60;101364.72;4910778;29;20286;-45
2022/08/27 09:19:33;;;;;;;10.32;4.13;;;;;;;18.50;92.68;101362.97;4903931;29;20287;-45
2022/08/27 09:22:27;;;;;;;10.77;4.05;;;;;;;18.29;92.51;101365.19;4912196;29;20203;-44
2022/08/27 09:25:25;;;;;;;12.88;4.10;;;;;;;18.45;93.35;101368.66;4910567;29;20216;-46
2022/08/27 09:27:53;;;;;;;10.38;4.35;;;;;;;18.54;92.87;101361.78;4907969;29;20254;-44
2022/08/27 09:30:26;;;;;;;10.05;4.38;;;;;;;18.53;92.51;101354.63;4911109;29;20196;-44
2022/08/27 09:32:55;;;;;;;11.02;3.80;;;;;;;18.57;92.24;101364.31;4910303;29;20184;-46
2022/08/27 09:35:22;;;;;;;13.90;3.80;;;;;;;18.62;92.03;101370.31;4911821;29;20224;-47
2022/08/27 09:37:53;;;;;;;10.27;3.78;;;;;;;18.73;92.91;101362.38;4911837;29;20180;-43
2022/08/27 09:40:21;;;;;;;10.77;4.07;;;;;;;18.53;91.44;101360.91;4909697;29;20199;-48
2022/08/27 09:42:54;;;;;;;14.00;3.90;;;;;;;18.49;92.62;101364.78;4911708;29;20686;-43
2022/08/27 09:45:25;;;;;;;11.73;3.80;;;;;;;18.67;91.99;101361.88;4911699;28;20204;-45
2022/08/27 09:48:01;;;;;;;15.45;4.00;;;;;;;18.63;91.55;101357.63;4911555;29;20188;-51
2022/08/27 09:50:36;;;;;;;11.43;4.40;;;;;;;18.45;92.97;101356.94;4910998;29;20303;-46
2022/08/27 09:53:03;;;;;;;12.15;4.88;;;;;;;18.48;92.45;101360.34;4908977;29;20188;-44
2022/08/27 09:55:46;;;;;;;12.25;4.40;;;;;;;18.52;91.99;101352.91;4908793;29;20576;-50
2022/08/27 09:58:25;;;;;;;8.75;4.10;;;;;;;18.42;91.79;101359.88;4910640;29;20196;-48
2022/08/27 10:01:04;;;;;;;12.15;4.88;;;;;;;18.46;91.51;101359.56;4910247;29;20662;-45
2022/08/27 10:03:33;;;;;;;10.73;3.97;;;;;;;18.46;91.61;101359.56;4911186;29;20674;-48
2022/08/27 10:05:59;;;;;;;8.98;3.95;;;;;;;18.27;91.25;101358.97;4911363;29;20207;-43
2022/08/27 10:08:33;;;;;;;14.23;4.00;;;;;;;18.17;91.90;101355.06;4911481;29;20671;-47
2022/08/27 10:11:31;;;;;;;10.88;4.15;;;;;;;18.06;91.88;101340.38;4911206;29;20230;-46
2022/08/27 10:14:13;;;;;;;9.48;3.75;;;;;;;18.17;91.87;101350.56;4910891;29;20215;-42
2022/08/27 10:17:16;;;;;;;13.20;4.30;;;;;;;18.25;91.26;101356.34;4908615;29;20215;-47
2022/08/27 10:20:06;;;;;;;9.10;4.07;;;;;;;18.58;90.77;101347.06;4910338;29;20246;-45
2022/08/27 10:22:56;;;;;;;9.40;3.67;;;;;;;18.98;89.67;101349.06;4937816;28;20332;-45
2022/08/27 10:25:34;;;;;;;12.27;4.20;;;;;;;18.95;87.95;101352.88;4908879;29;20212;-48
2022/08/27 10:28:18;;;;;;;13.00;3.95;;;;;;;18.91;87.58;101341.34;4911041;29;20570;-45
2022/08/27 10:31:07;;;;;;;13.15;4.45;;;;;;;18.80;87.16;101352.00;4909618;29;20211;-45
2022/08/27 10:33:45;;;;;;;12.30;3.90;;;;;;;18.87;87.85;101336.19;4908707;29;20192;-43
2022/08/27 10:36:48;;;;;;;8.02;3.70;;;;;;;18.94;86.95;101343.84;4906914;29;20216;-48
2022/08/27 10:39:39;;;;;;;8.23;3.15;;;;;;;19.31;86.22;101336.00;4910542;29;20196;-45
2022/08/27 10:42:25;;;;;;;11.32;4.03;;;;;;;19.06;85.71;101338.59;4910930;29;20192;-45
2022/08/27 10:45:06;;;;;;;9.48;3.88;;;;;;;19.31;86.06;101349.59;4910331;29;20215;-45
2022/08/27 10:47:54;;;;;;;12.63;3.60;;;;;;;19.49;85.90;101338.44;4916815;28;20242;-45
2022/08/27 10:50:35;;;;;;;10.10;3.60;;;;;;;19.57;84.99;101341.53;4903534;29;20192;-46
2022/08/27 10:53:07;;;;;;;11.85;3.55;;;;;;;19.45;84.69;101326.91;4909056;29;20246;-46
2022/08/27 10:55:39;;;;;;;11.38;3.20;;;;;;;19.66;83.77;101338.19;4910418;29;20263;-44
2022/08/27 10:58:32;;;;;;;9.15;3.40;;;;;;;19.64;83.52;101336.53;4908626;29;20196;-43
2022/08/27 11:01:01;;;;;;;6.88;3.20;;;;;;;19.47;83.86;101337.69;4910363;29;20180;-44
2022/08/27 11:03:39;;;;;;;10.43;3.55;;;;;;;19.53;83.22;101340.84;4910602;29;20188;-43
2022/08/27 11:06:19;;;;;;;8.77;4.00;;;;;;;19.48;84.06;101339.41;4910584;29;20204;-42
2022/08/27 11:08:52;;;;;;;5.40;3.28;;;;;;;19.78;84.40;101341.91;4907924;29;20614;-42
2022/08/27 11:11:38;;;;;;;7.10;3.17;;;;;;;19.86;83.67;101333.25;4914075;29;20226;-42
2022/08/27 11:14:08;;;;;;;9.15;3.92;;;;;;;19.89;82.16;101333.88;4909791;29;20212;-43
2022/08/27 11:16:42;;;;;;;11.00;3.40;;;;;;;19.74;82.03;101348.53;4911605;29;20207;-43
2022/08/27 11:19:18;;;;;;;10.85;3.65;;;;;;;19.82;82.33;101338.03;4909846;29;20742;-44
2022/08/27 11:22:00;;;;;;;15.30;3.97;;;;;;;20.09;81.58;101331.63;4914048;29;20275;-43
2022/08/27 11:24:40;;;;;;;10.07;3.10;;;;;;;20.34;79.98;101331.63;4906214;28;20350;-42